Time;durP1;ratioP1;P1;durP2;ratioP2;P2;SDS_P1;SDS_P2;PMS_P1;PMS_P2;Temp;Humidity;BMP_temperature;BMP_pressure;BME280_temperature;BME280_humidity;BME280_pressure;Samples;Min_cycle;Max_cycle;Signal;HPM_P1;HPM_P2
2022/09/04 00:00:32;;;;;;;;;;;23.50;70.00;;;;;;5098255;28;20200;-89
2022/09/04 00:03:14;;;;;;;;;;;23.50;70.20;;;;;;5081598;28;19912;-89
2022/09/04 00:05:49;;;;;;;;;;;23.40;70.70;;;;;;5079834;28;19986;-89
2022/09/04 00:08:33;;;;;;;;;;;23.40;70.50;;;;;;5080484;28;20335;-89
2022/09/04 00:11:02;;;;;;;;;;;23.40;70.70;;;;;;5079188;28;19904;-89
2022/09/04 00:13:32;;;;;;;;;;;23.30;70.60;;;;;;5079611;28;19912;-89
2022/09/04 00:16:04;;;;;;;;;;;23.40;70.30;;;;;;5096578;28;19903;-89
2022/09/04 00:18:30;;;;;;;;;;;23.30;70.00;;;;;;5098141;28;20288;-89
2022/09/04 00:21:01;;;;;;;;;;;23.30;70.10;;;;;;5080752;28;20001;-89
2022/09/04 00:23:31;;;;;;;;;;;23.30;70.00;;;;;;5079570;28;20266;-89
2022/09/04 00:26:01;;;;;;;;;;;23.30;70.00;;;;;;5095880;28;19908;-89
2022/09/04 00:28:35;;;;;;;;;;;23.30;70.00;;;;;;5079063;28;19904;-89
2022/09/04 00:31:21;;;;;;;;;;;23.30;70.10;;;;;;5078570;28;20004;-89
2022/09/04 00:33:47;;;;;;;;;;;23.30;70.00;;;;;;5076621;28;19903;-89
2022/09/04 00:36:14;;;;;;;;;;;23.30;70.20;;;;;;5097097;28;19955;-89
2022/09/04 00:38:42;;;;;;;;;;;23.30;70.10;;;;;;5078428;28;19911;-90
2022/09/04 00:41:26;;;;;;;;;;;23.20;70.20;;;;;;5096698;28;19904;-90
2022/09/04 00:44:08;;;;;;;;;;;23.20;70.00;;;;;;5080829;28;19919;-90
2022/09/04 00:46:52;;;;;;;;;;;23.20;70.00;;;;;;5079757;28;19903;-90
2022/09/04 00:49:28;;;;;;;;;;;23.20;70.00;;;;;;5079072;28;19904;-90
2022/09/04 00:51:58;;;;;;;;;;;23.20;70.00;;;;;;5078914;28;19911;-90
2022/09/04 00:54:36;;;;;;;;;;;23.20;70.60;;;;;;5079573;28;19904;-90
2022/09/04 00:57:12;;;;;;;;;;;23.20;69.90;;;;;;5077064;28;19904;-90
2022/09/04 00:59:44;;;;;;;;;;;23.20;69.90;;;;;;5076833;28;20014;-90
2022/09/04 01:02:28;;;;;;;;;;;23.20;69.90;;;;;;5077281;28;20325;-90
2022/09/04 01:05:15;;;;;;;;;;;23.20;69.80;;;;;;5079063;28;19908;-90
2022/09/04 01:07:59;;;;;;;;;;;23.20;69.70;;;;;;5078229;28;19904;-90
2022/09/04 01:10:27;;;;;;;;;;;23.10;69.60;;;;;;5078889;28;19911;-90
2022/09/04 01:12:56;;;;;;;;;;;23.10;70.30;;;;;;5079685;28;20258;-90
2022/09/04 01:15:44;;;;;;;;;;;23.10;69.80;;;;;;5080034;28;19911;-89
2022/09/04 01:18:13;;;;;;;;;;;23.10;69.70;;;;;;5094430;28;19908;-89
2022/09/04 01:20:55;;;;;;;;;;;23.10;69.90;;;;;;5096326;28;19910;-89
2022/09/04 01:23:20;;;;;;;;;;;23.10;69.70;;;;;;5079035;28;19926;-89
2022/09/04 01:26:00;;;;;;;;;;;23.10;69.90;;;;;;5078310;28;19904;-89
2022/09/04 01:28:33;;;;;;;;;;;23.10;70.00;;;;;;5078613;28;19908;-89
2022/09/04 01:31:02;;;;;;;;;;;23.10;69.90;;;;;;5077223;28;20006;-89
2022/09/04 01:33:31;;;;;;;;;;;23.10;70.00;;;;;;5075364;28;20357;-89
2022/09/04 01:36:15;;;;;;;;;;;23.10;70.00;;;;;;5092356;28;19953;-89
2022/09/04 01:38:46;;;;;;;;;;;23.10;70.30;;;;;;5092566;28;20242;-89
2022/09/04 01:41:31;;;;;;;;;;;23.10;70.20;;;;;;5074856;28;19904;-89
2022/09/04 01:43:57;;;;;;;;;;;23.10;70.30;;;;;;5092392;28;20123;-89
2022/09/04 01:46:48;;;;;;;;;;;23.00;70.40;;;;;;5076178;28;20163;-89
2022/09/04 01:49:19;;;;;;;;;;;23.00;70.40;;;;;;5074124;28;19911;-89
2022/09/04 01:52:03;;;;;;;;;;;23.00;70.30;;;;;;5077165;28;19973;-89
2022/09/04 01:54:44;;;;;;;;;;;23.00;70.40;;;;;;5094723;28;20002;-88
2022/09/04 01:57:25;;;;;;;;;;;23.00;70.30;;;;;;5076839;28;19934;-89
2022/09/04 01:59:56;;;;;;;;;;;23.00;70.30;;;;;;5076010;28;20051;-89
2022/09/04 02:02:43;;;;;;;;;;;23.00;70.30;;;;;;5093386;28;19968;-89
2022/09/04 02:05:11;;;;;;;;;;;23.00;70.10;;;;;;5074582;28;19999;-89
2022/09/04 02:07:45;;;;;;;;;;;22.90;70.00;;;;;;5077905;28;20018;-89
2022/09/04 02:10:14;;;;;;;;;;;23.00;70.00;;;;;;5077645;28;19903;-89
2022/09/04 02:12:58;;;;;;;;;;;22.90;69.90;;;;;;5077780;28;20339;-89
2022/09/04 02:15:41;;;;;;;;;;;22.90;69.90;;;;;;5078325;28;19967;-89
2022/09/04 02:18:18;;;;;;;;;;;22.90;69.90;;;;;;5078445;28;19911;-89
2022/09/04 02:20:51;;;;;;;;;;;22.90;69.80;;;;;;5078935;28;19969;-89
2022/09/04 02:23:20;;;;;;;;;;;22.90;69.80;;;;;;5079012;28;19912;-89
2022/09/04 02:25:49;;;;;;;;;;;22.90;69.70;;;;;;5096364;28;20323;-89
2022/09/04 02:28:21;;;;;;;;;;;22.90;69.70;;;;;;5078969;28;20244;-89
2022/09/04 02:31:04;;;;;;;;;;;22.90;69.70;;;;;;5095417;28;19904;-90
2022/09/04 02:33:53;;;;;;;;;;;22.90;69.80;;;;;;5095413;28;19908;-90
2022/09/04 02:36:26;;;;;;;;;;;22.90;69.70;;;;;;5077736;28;19904;-89
2022/09/04 02:39:07;;;;;;;;;;;22.80;69.80;;;;;;5077749;28;19953;-89
2022/09/04 02:41:33;;;;;;;;;;;22.90;69.70;;;;;;5077593;28;19907;-90
2022/09/04 02:44:17;;;;;;;;;;;22.80;69.80;;;;;;5077937;28;20289;-89
2022/09/04 02:46:52;;;;;;;;;;;22.80;69.70;;;;;;5078009;28;20146;-89
2022/09/04 02:49:28;;;;;;;;;;;22.80;69.80;;;;;;5078809;28;19912;-89
2022/09/04 02:52:03;;;;;;;;;;;22.80;70.00;;;;;;5078397;28;19915;-89
2022/09/04 02:54:38;;;;;;;;;;;22.80;70.00;;;;;;5078658;28;19931;-89
2022/09/04 02:57:23;;;;;;;;;;;22.80;70.00;;;;;;5079103;28;19912;-89
2022/09/04 03:00:07;;;;;;;;;;;22.70;70.20;;;;;;5078453;28;20078;-90
2022/09/04 03:02:33;;;;;;;;;;;22.70;70.20;;;;;;5077891;28;19957;-89
2022/09/04 03:05:03;;;;;;;;;;;22.70;70.30;;;;;;5076606;28;19912;-90
2022/09/04 03:07:36;;;;;;;;;;;22.70;70.40;;;;;;5076455;28;19904;-90
2022/09/04 03:10:15;;;;;;;;;;;22.70;70.40;;;;;;5077079;28;20001;-89
2022/09/04 03:12:45;;;;;;;;;;;22.70;70.50;;;;;;5076448;28;19915;-89
2022/09/04 03:15:11;;;;;;;;;;;22.70;70.70;;;;;;5095149;28;19904;-90
2022/09/04 03:17:39;;;;;;;;;;;22.60;70.70;;;;;;5077885;28;20007;-90
2022/09/04 03:20:10;;;;;;;;;;;22.60;70.70;;;;;;5077932;28;19944;-90
2022/09/04 03:22:57;;;;;;;;;;;22.60;71.30;;;;;;5077852;28;19923;-90
2022/09/04 03:25:23;;;;;;;;;;;22.60;71.40;;;;;;5081375;28;19904;-90
2022/09/04 03:27:48;;;;;;;;;;;22.60;71.50;;;;;;5099229;28;19904;-90
2022/09/04 03:30:14;;;;;;;;;;;22.60;71.90;;;;;;5098647;28;19911;-89
2022/09/04 03:33:01;;;;;;;;;;;22.60;72.20;;;;;;5098007;28;19923;-89
2022/09/04 03:35:33;;;;;;;;;;;22.60;72.40;;;;;;5099035;28;19943;-89
2022/09/04 03:38:16;;;;;;;;;;;22.60;72.60;;;;;;5082402;28;20270;-89
2022/09/04 03:40:56;;;;;;;;;;;22.60;72.70;;;;;;5081775;28;19904;-89
2022/09/04 03:43:30;;;;;;;;;;;22.50;72.70;;;;;;5097947;28;20254;-89
2022/09/04 03:45:55;;;;;;;;;;;22.50;72.70;;;;;;5080493;28;19962;-89
2022/09/04 03:48:40;;;;;;;;;;;22.50;72.80;;;;;;5081305;28;19958;-89
2022/09/04 03:51:16;;;;;;;;;;;22.50;73.00;;;;;;5081810;28;19908;-89
2022/09/04 03:53:44;;;;;;;;;;;22.50;73.10;;;;;;5098901;28;19903;-89
2022/09/04 03:56:13;;;;;;;;;;;22.50;73.10;;;;;;5081013;28;19922;-89
2022/09/04 03:58:44;;;;;;;;;;;22.50;73.20;;;;;;5080114;28;19994;-89
2022/09/04 04:01:17;;;;;;;;;;;22.50;73.40;;;;;;5080794;28;20174;-89
2022/09/04 04:03:52;;;;;;;;;;;22.50;73.60;;;;;;5080760;28;19922;-89
2022/09/04 04:06:44;;;;;;;;;;;22.50;73.70;;;;;;5080480;28;19904;-89
2022/09/04 04:09:10;;;;;;;;;;;22.50;73.60;;;;;;5082095;28;20182;-90
2022/09/04 04:11:43;;;;;;;;;;;22.50;73.70;;;;;;5081865;28;19904;-90
2022/09/04 04:14:41;;;;;;;;;;;22.50;73.80;;;;;;5081350;28;19915;-89
2022/09/04 04:17:07;;;;;;;;;;;22.50;73.70;;;;;;5046762;28;20002;-89
2022/09/04 04:19:46;;;;;;;;;;;22.50;73.90;;;;;;5081029;28;19990;-89
2022/09/04 04:22:27;;;;;;;;;;;22.40;74.00;;;;;;5079786;28;19999;-89
2022/09/04 04:25:00;;;;;;;;;;;22.40;74.00;;;;;;5078885;28;20170;-89
2022/09/04 04:27:25;;;;;;;;;;;22.40;73.90;;;;;;5078485;28;19918;-90
2022/09/04 04:30:14;;;;;;;;;;;22.40;74.00;;;;;;5076889;28;19904;-90
2022/09/04 04:32:46;;;;;;;;;;;22.40;74.20;;;;;;5087055;28;20003;-90
2022/09/04 04:35:30;;;;;;;;;;;22.40;74.30;;;;;;5077732;28;20003;-89
2022/09/04 04:37:56;;;;;;;;;;;22.40;74.40;;;;;;5079681;28;20284;-90
2022/09/04 04:40:21;;;;;;;;;;;22.40;74.40;;;;;;5079383;28;19995;-90
2022/09/04 04:42:57;;;;;;;;;;;22.40;74.30;;;;;;5097221;28;19918;-90
2022/09/04 04:48:42;;;;;;;;;;;22.40;74.50;;;;;;5097323;28;19910;-90
2022/09/04 04:51:17;;;;;;;;;;;22.40;74.40;;;;;;5080162;28;19925;-90
2022/09/04 04:53:43;;;;;;;;;;;22.40;74.50;;;;;;5079390;28;20299;-90
2022/09/04 04:56:18;;;;;;;;;;;22.40;74.70;;;;;;5080249;28;19954;-90
2022/09/04 04:59:02;;;;;;;;;;;22.40;74.60;;;;;;5095923;28;20194;-90
2022/09/04 05:01:47;;;;;;;;;;;22.40;74.50;;;;;;5095998;28;20255;-90
2022/09/04 05:04:12;;;;;;;;;;;22.40;74.50;;;;;;5096547;28;19969;-90
2022/09/04 05:06:46;;;;;;;;;;;22.40;74.50;;;;;;5095281;28;19904;-90
2022/09/04 05:09:24;;;;;;;;;;;22.40;74.40;;;;;;5079825;28;19904;-89
2022/09/04 05:11:56;;;;;;;;;;;22.40;74.40;;;;;;5096904;28;19957;-90
2022/09/04 05:14:35;;;;;;;;;;;22.40;74.20;;;;;;5079934;28;19908;-90
2022/09/04 05:17:21;;;;;;;;;;;22.40;74.20;;;;;;5078849;28;19908;-90
2022/09/04 05:20:07;;;;;;;;;;;22.40;74.10;;;;;;5078280;28;19904;-90
2022/09/04 05:22:42;;;;;;;;;;;22.40;74.10;;;;;;5066193;28;19970;-90
2022/09/04 05:25:23;;;;;;;;;;;22.40;74.00;;;;;;5077755;28;20274;-90
2022/09/04 05:27:55;;;;;;;;;;;22.40;73.90;;;;;;5095567;28;20217;-89
2022/09/04 05:30:38;;;;;;;;;;;22.40;73.90;;;;;;5077972;28;19908;-90
2022/09/04 05:33:09;;;;;;;;;;;22.50;73.90;;;;;;5095616;28;19904;-89
2022/09/04 05:35:41;;;;;;;;;;;22.50;73.80;;;;;;5078570;28;19978;-90
2022/09/04 05:38:06;;;;;;;;;;;22.50;73.70;;;;;;5079659;28;19904;-90
2022/09/04 05:40:47;;;;;;;;;;;22.50;73.60;;;;;;5079610;28;19965;-90
2022/09/04 05:43:32;;;;;;;;;;;22.60;73.30;;;;;;5079374;28;19930;-90
2022/09/04 05:46:10;;;;;;;;;;;22.70;72.60;;;;;;5077023;28;19965;-89
2022/09/04 05:48:46;;;;;;;;;;;22.80;72.30;;;;;;5078761;28;19904;-89
2022/09/04 05:51:31;;;;;;;;;;;22.90;71.60;;;;;;5078447;28;19904;-89
2022/09/04 05:54:07;;;;;;;;;;;23.00;70.40;;;;;;5079267;28;19915;-89
2022/09/04 05:56:58;;;;;;;;;;;23.10;71.20;;;;;;5079451;28;19964;-89
2022/09/04 05:59:30;;;;;;;;;;;23.30;70.80;;;;;;5079057;28;20178;-89
2022/09/04 06:02:09;;;;;;;;;;;23.30;67.30;;;;;;5078934;28;19911;-89
2022/09/04 06:04:54;;;;;;;;;;;23.40;66.40;;;;;;5078355;28;19908;-89
2022/09/04 06:07:30;;;;;;;;;;;23.50;65.60;;;;;;5078655;28;19955;-89
2022/09/04 06:10:09;;;;;;;;;;;23.60;64.60;;;;;;5077969;28;20240;-89
2022/09/04 06:12:44;;;;;;;;;;;23.80;63.60;;;;;;5077364;28;19904;-89
2022/09/04 06:15:10;;;;;;;;;;;23.90;62.50;;;;;;5078111;28;20262;-89
2022/09/04 06:17:49;;;;;;;;;;;24.10;61.00;;;;;;5077551;28;19947;-89
2022/09/04 06:20:24;;;;;;;;;;;24.30;59.80;;;;;;5076580;28;19915;-89
2022/09/04 06:22:49;;;;;;;;;;;24.60;58.90;;;;;;5076192;28;20231;-89
2022/09/04 06:25:27;;;;;;;;;;;25.00;58.00;;;;;;5077440;28;19991;-89
2022/09/04 06:28:02;;;;;;;;;;;25.40;57.00;;;;;;5080567;28;20242;-89
2022/09/04 06:30:34;;;;;;;;;;;25.70;56.00;;;;;;5078317;28;20250;-89
2022/09/04 06:33:15;;;;;;;;;;;26.00;55.10;;;;;;5077910;28;19965;-89
2022/09/04 06:35:54;;;;;;;;;;;26.20;54.60;;;;;;5077815;28;20236;-89
2022/09/04 06:38:19;;;;;;;;;;;26.50;54.00;;;;;;5094884;28;19939;-89
2022/09/04 06:40:51;;;;;;;;;;;26.60;53.50;;;;;;5076940;28;19951;-89
2022/09/04 06:43:20;;;;;;;;;;;26.80;53.30;;;;;;5094561;28;19908;-89
2022/09/04 06:45:53;;;;;;;;;;;27.10;52.80;;;;;;5076751;28;20288;-89
2022/09/04 06:48:38;;;;;;;;;;;27.10;52.40;;;;;;5076238;28;20122;-89
2022/09/04 06:51:33;;;;;;;;;;;27.30;51.90;;;;;;5077806;28;20201;-89
2022/09/04 06:54:01;;;;;;;;;;;27.50;51.70;;;;;;5023251;28;19905;-89
2022/09/04 06:56:34;;;;;;;;;;;27.80;51.30;;;;;;5074432;28;20002;-89
2022/09/04 06:59:06;;;;;;;;;;;28.10;50.90;;;;;;5073600;28;19912;-89
2022/09/04 07:01:39;;;;;;;;;;;28.40;50.50;;;;;;5076659;28;19904;-89
2022/09/04 07:04:10;;;;;;;;;;;28.60;50.10;;;;;;5093365;28;20020;-89
2022/09/04 07:06:46;;;;;;;;;;;28.70;49.90;;;;;;5092592;28;19931;-89
2022/09/04 07:09:31;;;;;;;;;;;29.00;49.60;;;;;;5074813;28;20159;-89
2022/09/04 07:11:59;;;;;;;;;;;29.20;49.20;;;;;;5075163;28;20259;-89
2022/09/04 07:14:44;;;;;;;;;;;29.50;48.80;;;;;;5072861;28;20006;-89
2022/09/04 07:17:19;;;;;;;;;;;29.70;48.90;;;;;;5073948;28;20325;-89
2022/09/04 07:20:03;;;;;;;;;;;30.00;48.40;;;;;;5074442;28;19965;-89
2022/09/04 07:22:34;;;;;;;;;;;30.10;48.00;;;;;;5076184;28;19919;-89
2022/09/04 07:25:10;;;;;;;;;;;30.40;47.90;;;;;;5076747;28;20033;-89
2022/09/04 07:27:41;;;;;;;;;;;30.60;47.80;;;;;;5075938;28;19968;-89
2022/09/04 07:30:08;;;;;;;;;;;30.80;47.50;;;;;;5076524;28;19915;-89
2022/09/04 07:32:41;;;;;;;;;;;30.90;47.30;;;;;;5075565;28;20214;-89
2022/09/04 07:35:13;;;;;;;;;;;31.10;47.20;;;;;;5091800;28;19904;-89
2022/09/04 07:37:45;;;;;;;;;;;31.20;47.00;;;;;;5092155;28;19904;-89
2022/09/04 07:40:20;;;;;;;;;;;31.40;46.90;;;;;;5073216;28;20005;-89
2022/09/04 07:42:52;;;;;;;;;;;31.50;46.60;;;;;;5074217;28;19908;-89
2022/09/04 07:45:21;;;;;;;;;;;31.60;46.50;;;;;;5074573;28;19916;-89
2022/09/04 07:48:13;;;;;;;;;;;31.80;46.40;;;;;;5072675;28;19915;-89
2022/09/04 07:51:06;;;;;;;;;;;32.00;46.40;;;;;;5047923;28;19912;-89
2022/09/04 07:53:51;;;;;;;;;;;32.30;46.60;;;;;;5072699;28;20155;-89
2022/09/04 07:56:29;;;;;;;;;;;32.60;46.30;;;;;;5081228;28;20044;-89
2022/09/04 07:59:06;;;;;;;;;;;32.70;45.90;;;;;;5074843;28;19903;-89
2022/09/04 08:01:32;;;;;;;;;;;32.90;45.70;;;;;;5092162;28;19915;-89
2022/09/04 08:04:10;;;;;;;;;;;33.00;45.40;;;;;;5073010;28;19908;-89
2022/09/04 08:06:45;;;;;;;;;;;33.00;45.40;;;;;;5071980;28;19992;-89
2022/09/04 08:09:22;;;;;;;;;;;33.10;45.40;;;;;;5073887;28;19904;-89
2022/09/04 08:12:03;;;;;;;;;;;33.20;45.30;;;;;;5076635;28;20025;-89
2022/09/04 08:14:55;;;;;;;;;;;33.30;45.00;;;;;;5076683;28;19904;-89
2022/09/04 08:17:24;;;;;;;;;;;33.40;45.00;;;;;;5071604;28;20269;-87
2022/09/04 08:20:11;;;;;;;;;;;33.40;45.00;;;;;;5075792;28;19934;-87
2022/09/04 08:22:55;;;;;;;;;;;33.50;44.90;;;;;;5065597;28;19924;-87
2022/09/04 08:25:26;;;;;;;;;;;33.60;44.90;;;;;;5077259;28;19911;-87
2022/09/04 08:28:00;;;;;;;;;;;33.60;44.70;;;;;;5092918;28;20007;-87
2022/09/04 08:30:30;;;;;;;;;;;33.60;45.30;;;;;;5077046;28;19930;-87
2022/09/04 08:33:01;;;;;;;;;;;33.70;44.90;;;;;;5093660;28;19904;-87
2022/09/04 08:35:35;;;;;;;;;;;33.90;44.70;;;;;;5075719;28;19914;-87
2022/09/04 08:38:03;;;;;;;;;;;33.90;44.60;;;;;;5074465;28;19908;-87
2022/09/04 08:40:32;;;;;;;;;;;34.00;44.50;;;;;;5079342;28;19918;-87
2022/09/04 08:43:24;;;;;;;;;;;34.10;44.50;;;;;;5081961;28;19908;-87
2022/09/04 08:45:58;;;;;;;;;;;34.10;44.70;;;;;;5075554;28;20236;-87
2022/09/04 08:48:56;;;;;;;;;;;34.20;44.60;;;;;;5075712;28;19930;-87
2022/09/04 08:51:41;;;;;;;;;;;34.30;44.70;;;;;;5020548;28;19904;-87
2022/09/04 08:54:06;;;;;;;;;;;34.40;44.50;;;;;;5076206;28;19904;-87
2022/09/04 08:56:39;;;;;;;;;;;34.60;44.50;;;;;;5073752;28;19915;-86
2022/09/04 08:59:04;;;;;;;;;;;34.60;44.20;;;;;;5075801;28;20278;-88
2022/09/04 09:01:45;;;;;;;;;;;34.70;44.30;;;;;;5074741;28;19900;-88
2022/09/04 09:04:30;;;;;;;;;;;34.80;44.30;;;;;;5075398;28;19907;-88
2022/09/04 09:07:18;;;;;;;;;;;34.90;44.10;;;;;;5074348;28;19904;-88
2022/09/04 09:09:58;;;;;;;;;;;35.00;44.10;;;;;;5073804;28;19951;-88
2022/09/04 09:12:27;;;;;;;;;;;35.00;44.20;;;;;;5091926;28;19909;-88
2022/09/04 09:15:12;;;;;;;;;;;35.00;44.00;;;;;;5074119;28;19911;-88
2022/09/04 09:17:43;;;;;;;;;;;35.00;44.10;;;;;;5072490;28;19946;-88
2022/09/04 09:20:12;;;;;;;;;;;35.00;44.30;;;;;;5072614;28;20155;-88
2022/09/04 09:22:58;;;;;;;;;;;35.00;44.10;;;;;;5072142;28;19940;-88
2022/09/04 09:25:29;;;;;;;;;;;35.00;44.30;;;;;;5091343;28;19958;-88
2022/09/04 09:28:14;;;;;;;;;;;35.10;44.40;;;;;;5091875;28;20006;-88
2022/09/04 09:30:56;;;;;;;;;;;35.30;46.20;;;;;;5071325;28;19904;-88
2022/09/04 09:33:23;;;;;;;;;;;35.60;45.70;;;;;;5090150;28;19910;-88
2022/09/04 09:36:07;;;;;;;;;;;35.40;45.40;;;;;;5071996;28;20002;-88
2022/09/04 09:38:48;;;;;;;;;;;35.50;45.60;;;;;;5073974;28;19904;-87
2022/09/04 09:41:20;;;;;;;;;;;35.50;45.20;;;;;;5072932;28;19904;-87
2022/09/04 09:44:18;;;;;;;;;;;35.30;45.40;;;;;;5073089;28;19908;-87
2022/09/04 09:47:17;;;;;;;;;;;35.00;45.30;;;;;;5018805;28;19976;-88
2022/09/04 09:49:58;;;;;;;;;;;34.10;46.00;;;;;;5017592;28;20111;-88
2022/09/04 09:52:26;;;;;;;;;;;33.30;46.30;;;;;;5071173;28;19911;-87
2022/09/04 09:55:10;;;;;;;;;;;31.80;47.80;;;;;;5071030;28;19904;-88
2022/09/04 09:57:55;;;;;;;;;;;31.40;48.50;;;;;;5071127;28;20139;-87
2022/09/04 10:00:26;;;;;;;;;;;31.10;49.00;;;;;;5071390;28;19915;-88
2022/09/04 10:02:58;;;;;;;;;;;30.80;49.30;;;;;;5071698;28;19970;-87
2022/09/04 10:05:43;;;;;;;;;;;30.50;49.90;;;;;;5074533;28;19939;-88
2022/09/04 10:08:14;;;;;;;;;;;30.10;50.40;;;;;;5092629;28;20228;-88
2022/09/04 10:10:44;;;;;;;;;;;29.70;50.70;;;;;;5090496;28;20244;-88
2022/09/04 10:13:28;;;;;;;;;;;29.40;51.30;;;;;;5069841;28;19904;-88
2022/09/04 10:16:13;;;;;;;;;;;29.20;51.80;;;;;;5070358;28;19914;-88
2022/09/04 10:18:48;;;;;;;;;;;29.00;52.00;;;;;;5089262;28;20186;-88
2022/09/04 10:21:32;;;;;;;;;;;28.70;52.40;;;;;;5072411;28;20301;-88
2022/09/04 10:24:10;;;;;;;;;;;28.50;52.90;;;;;;5071580;28;20229;-88
2022/09/04 10:26:54;;;;;;;;;;;28.30;53.30;;;;;;5087463;28;19968;-88
2022/09/04 10:29:39;;;;;;;;;;;28.20;54.10;;;;;;5071572;28;19995;-88
2022/09/04 10:32:23;;;;;;;;;;;28.10;54.60;;;;;;5090721;28;19904;-88
2022/09/04 10:35:02;;;;;;;;;;;28.00;55.00;;;;;;5068800;28;20285;-88
2022/09/04 10:37:27;;;;;;;;;;;28.00;55.20;;;;;;5071586;28;19943;-88
2022/09/04 10:42:49;;;;;;;;;;;27.90;55.70;;;;;;5087940;28;19966;-88
2022/09/04 10:45:25;;;;;;;;;;;27.70;56.50;;;;;;5072110;28;19908;-87
2022/09/04 10:47:51;;;;;;;;;;;27.60;56.70;;;;;;5069833;28;19951;-87
2022/09/04 10:50:38;;;;;;;;;;;27.50;57.20;;;;;;5071306;28;19931;-87
2022/09/04 10:53:10;;;;;;;;;;;27.50;57.60;;;;;;5070242;28;19908;-87
2022/09/04 10:55:42;;;;;;;;;;;27.50;58.00;;;;;;5072534;28;19904;-87
2022/09/04 10:58:17;;;;;;;;;;;27.50;58.00;;;;;;5071284;28;19907;-87
2022/09/04 11:00:58;;;;;;;;;;;27.50;58.40;;;;;;5070048;28;19998;-87
2022/09/04 11:03:35;;;;;;;;;;;27.50;58.40;;;;;;5070900;28;19995;-87
2022/09/04 11:06:22;;;;;;;;;;;27.50;58.50;;;;;;5071791;28;20011;-87
2022/09/04 11:08:47;;;;;;;;;;;27.40;59.10;;;;;;5072703;28;19904;-87
2022/09/04 11:11:39;;;;;;;;;;;27.40;59.40;;;;;;5072322;28;19981;-87
2022/09/04 11:14:27;;;;;;;;;;;27.30;59.40;;;;;;5088405;28;19935;-87
2022/09/04 11:17:11;;;;;;;;;;;27.20;59.90;;;;;;5073174;28;20055;-88
2022/09/04 11:19:55;;;;;;;;;;;27.20;61.30;;;;;;5073938;28;19994;-88
2022/09/04 11:22:33;;;;;;;;;;;27.20;60.60;;;;;;5073810;28;19927;-88
2022/09/04 11:25:00;;;;;;;;;;;27.30;60.70;;;;;;5071707;28;19915;-88
2022/09/04 11:27:28;;;;;;;;;;;27.60;59.10;;;;;;5069777;28;20108;-88
2022/09/04 11:29:57;;;;;;;;;;;27.50;59.10;;;;;;5087209;28;19912;-88
2022/09/04 11:32:26;;;;;;;;;;;27.40;59.60;;;;;;5087751;28;19912;-88
2022/09/04 11:34:57;;;;;;;;;;;27.30;60.60;;;;;;5069717;28;20270;-88
2022/09/04 11:37:25;;;;;;;;;;;27.20;60.80;;;;;;5088636;28;19908;-88
2022/09/04 11:39:54;;;;;;;;;;;27.30;60.90;;;;;;5072394;28;19904;-88
2022/09/04 11:42:26;;;;;;;;;;;27.30;60.30;;;;;;5089038;28;20069;-88
2022/09/04 11:45:15;;;;;;;;;;;27.30;60.30;;;;;;5071096;28;19912;-88
2022/09/04 11:47:51;;;;;;;;;;;27.20;60.70;;;;;;5073856;28;19911;-88
2022/09/04 11:50:19;;;;;;;;;;;27.20;60.90;;;;;;5074649;28;19998;-87
2022/09/04 11:53:11;;;;;;;;;;;27.20;61.20;;;;;;5074198;28;19946;-88
2022/09/04 11:55:49;;;;;;;;;;;27.30;60.20;;;;;;5054746;28;19904;-87
2022/09/04 11:58:26;;;;;;;;;;;27.40;59.10;;;;;;5092496;28;19914;-88
2022/09/04 12:00:58;;;;;;;;;;;27.50;59.50;;;;;;5074749;28;19908;-88
2022/09/04 12:03:26;;;;;;;;;;;27.50;59.40;;;;;;5076175;28;19908;-88
2022/09/04 12:05:55;;;;;;;;;;;27.60;61.20;;;;;;5075170;28;20031;-88
2022/09/04 12:08:24;;;;;;;;;;;27.70;59.80;;;;;;5075893;28;19976;-88
2022/09/04 12:11:00;;;;;;;;;;;27.80;60.80;;;;;;5092457;28;20088;-88
2022/09/04 12:13:26;;;;;;;;;;;27.80;59.40;;;;;;5092394;28;19904;-87
2022/09/04 12:16:21;;;;;;;;;;;27.90;59.80;;;;;;5074171;28;19908;-87
2022/09/04 12:18:53;;;;;;;;;;;27.80;59.50;;;;;;5052081;28;19915;-90
2022/09/04 12:21:34;;;;;;;;;;;27.80;59.20;;;;;;5074509;28;20232;-89
2022/09/04 12:24:00;;;;;;;;;;;27.90;59.60;;;;;;5073906;28;19920;-88
2022/09/04 12:26:32;;;;;;;;;;;27.90;59.30;;;;;;5073114;28;19911;-89
2022/09/04 12:29:13;;;;;;;;;;;27.80;59.30;;;;;;5070897;28;20138;-87
2022/09/04 12:31:51;;;;;;;;;;;27.70;59.80;;;;;;5070555;28;19918;-87
2022/09/04 12:34:29;;;;;;;;;;;27.70;59.50;;;;;;5070772;28;19919;-87
2022/09/04 12:37:10;;;;;;;;;;;27.60;60.00;;;;;;5072994;28;20350;-87
2022/09/04 12:39:36;;;;;;;;;;;27.50;60.10;;;;;;5072120;28;19934;-87
2022/09/04 12:42:05;;;;;;;;;;;27.50;60.60;;;;;;5090121;28;19904;-87
2022/09/04 12:44:43;;;;;;;;;;;27.40;60.60;;;;;;5072550;28;19908;-87
2022/09/04 12:47:21;;;;;;;;;;;27.40;61.40;;;;;;5071485;28;20418;-87
2022/09/04 12:49:57;;;;;;;;;;;27.30;61.50;;;;;;5073575;28;19968;-88
2022/09/04 12:52:34;;;;;;;;;;;27.20;62.20;;;;;;5072652;28;20008;-88
2022/09/04 12:55:24;;;;;;;;;;;27.20;62.70;;;;;;5090787;28;19915;-87
2022/09/04 12:57:59;;;;;;;;;;;27.30;62.50;;;;;;5089401;28;19935;-87
2022/09/04 13:00:31;;;;;;;;;;;27.30;62.20;;;;;;5071742;28;20312;-87
2022/09/04 13:02:57;;;;;;;;;;;27.40;65.00;;;;;;5070659;28;19908;-88
2022/09/04 13:05:41;;;;;;;;;;;27.60;63.10;;;;;;5071284;28;19999;-87
2022/09/04 13:08:07;;;;;;;;;;;27.70;62.60;;;;;;5073405;28;20332;-87
2022/09/04 13:10:36;;;;;;;;;;;27.70;60.60;;;;;;5071825;28;20212;-88
2022/09/04 13:13:17;;;;;;;;;;;27.80;60.50;;;;;;5070657;28;19911;-88
2022/09/04 13:15:48;;;;;;;;;;;27.80;59.60;;;;;;5088096;28;20006;-87
2022/09/04 13:18:26;;;;;;;;;;;27.80;59.60;;;;;;5071659;28;19904;-88
2022/09/04 13:20:52;;;;;;;;;;;27.80;59.50;;;;;;5072832;28;20301;-87
2022/09/04 13:23:17;;;;;;;;;;;27.70;59.60;;;;;;5071479;28;20063;-87
2022/09/04 13:25:56;;;;;;;;;;;27.70;60.00;;;;;;5087716;28;20006;-87
2022/09/04 13:28:43;;;;;;;;;;;27.60;60.90;;;;;;5089317;28;19957;-89
2022/09/04 13:31:17;;;;;;;;;;;27.70;59.40;;;;;;5088360;28;20294;-88
2022/09/04 13:33:57;;;;;;;;;;;27.90;58.20;;;;;;5068572;28;20068;-88
2022/09/04 13:36:34;;;;;;;;;;;27.90;57.90;;;;;;5069693;28;19914;-88
2022/09/04 13:39:05;;;;;;;;;;;27.90;58.40;;;;;;5068744;28;19910;-88
2022/09/04 13:41:34;;;;;;;;;;;27.90;57.70;;;;;;5071225;28;19956;-88
2022/09/04 13:44:00;;;;;;;;;;;27.80;58.00;;;;;;5072496;28;20216;-87
2022/09/04 13:46:45;;;;;;;;;;;27.70;58.50;;;;;;5070737;28;20255;-87
2022/09/04 13:49:13;;;;;;;;;;;27.70;58.40;;;;;;5068407;28;19910;-87
2022/09/04 13:51:46;;;;;;;;;;;27.80;57.00;;;;;;5089185;28;20163;-87
2022/09/04 13:54:12;;;;;;;;;;;27.80;56.60;;;;;;5071106;28;19907;-87
2022/09/04 13:56:56;;;;;;;;;;;27.80;56.50;;;;;;5070203;28;19904;-87
2022/09/04 13:59:23;;;;;;;;;;;27.80;56.30;;;;;;5070762;28;20002;-87
2022/09/04 14:01:53;;;;;;;;;;;27.80;56.60;;;;;;5067927;28;19915;-87
2022/09/04 14:04:39;;;;;;;;;;;27.80;57.00;;;;;;5069407;28;19908;-88
2022/09/04 14:07:09;;;;;;;;;;;27.80;57.10;;;;;;5070726;28;19911;-88
2022/09/04 14:09:42;;;;;;;;;;;27.70;57.30;;;;;;5070388;28;19915;-88
2022/09/04 14:12:08;;;;;;;;;;;27.70;57.70;;;;;;5067753;28;20234;-87
2022/09/04 14:14:54;;;;;;;;;;;27.70;57.80;;;;;;5069675;28;19954;-88
2022/09/04 14:17:25;;;;;;;;;;;27.70;58.00;;;;;;5089958;28;19904;-88
2022/09/04 14:19:51;;;;;;;;;;;27.70;58.20;;;;;;5070210;28;19922;-88
2022/09/04 14:22:30;;;;;;;;;;;27.70;58.30;;;;;;5068921;28;19976;-88
2022/09/04 14:25:14;;;;;;;;;;;27.70;58.00;;;;;;5070628;28;20359;-88
2022/09/04 14:27:55;;;;;;;;;;;27.70;58.20;;;;;;5071680;28;19916;-88
2022/09/04 14:30:21;;;;;;;;;;;27.70;58.20;;;;;;5071283;28;19915;-88
2022/09/04 14:33:03;;;;;;;;;;;27.80;58.30;;;;;;5090529;28;19907;-87
2022/09/04 14:35:45;;;;;;;;;;;27.70;58.10;;;;;;5091583;28;19904;-88
2022/09/04 14:38:13;;;;;;;;;;;27.70;58.20;;;;;;5088570;28;19912;-88
2022/09/04 14:40:58;;;;;;;;;;;27.70;58.30;;;;;;5087226;28;19908;-87
2022/09/04 14:43:31;;;;;;;;;;;27.70;58.40;;;;;;5051082;28;19908;-88
2022/09/04 14:45:58;;;;;;;;;;;27.70;58.40;;;;;;5068250;28;20257;-88
2022/09/04 14:48:27;;;;;;;;;;;27.70;58.40;;;;;;5068547;28;19926;-88
2022/09/04 14:50:55;;;;;;;;;;;27.70;56.00;;;;;;5068796;28;19908;-88
2022/09/04 14:53:21;;;;;;;;;;;27.70;55.20;;;;;;5067455;28;20000;-87
2022/09/04 14:56:05;;;;;;;;;;;27.70;54.70;;;;;;5068900;28;19989;-87
2022/09/04 14:58:34;;;;;;;;;;;27.60;54.70;;;;;;5069655;28;20256;-87
2022/09/04 15:01:06;;;;;;;;;;;27.60;54.90;;;;;;5072045;28;20140;-87
2022/09/04 15:03:54;;;;;;;;;;;27.60;55.50;;;;;;5087306;28;20182;-87
2022/09/04 15:06:24;;;;;;;;;;;27.60;55.80;;;;;;5056065;28;19934;-90
2022/09/04 15:08:52;;;;;;;;;;;27.60;55.80;;;;;;5070732;28;20155;-90
2022/09/04 15:11:26;;;;;;;;;;;27.60;55.90;;;;;;5070034;28;19912;-91